sensor_id;sensor_type;location;lat;lon;timestamp;P1;durP1;ratioP1;P2;durP2;ratioP2
3034;SDS011;1527;48.836;9.172;2022-08-03T00:00:40;6.53;;;4.27;;
3034;SDS011;1527;48.836;9.172;2022-08-03T00:03:09;4.60;;;4.20;;
3034;SDS011;1527;48.836;9.172;2022-08-03T00:05:39;6.00;;;4.60;;
3034;SDS011;1527;48.836;9.172;2022-08-03T00:08:28;5.40;;;4.27;;
3034;SDS011;1527;48.836;9.172;2022-08-03T00:10:59;5.80;;;4.30;;
3034;SDS011;1527;48.836;9.172;2022-08-03T00:13:29;4.37;;;4.07;;
3034;SDS011;1527;48.836;9.172;2022-08-03T00:15:58;5.47;;;4.13;;
3034;SDS011;1527;48.836;9.172;2022-08-03T00:18:27;4.50;;;4.10;;
3034;SDS011;1527;48.836;9.172;2022-08-03T00:20:56;5.17;;;4.20;;
3034;SDS011;1527;48.836;9.172;2022-08-03T00:23:26;5.20;;;4.80;;
3034;SDS011;1527;48.836;9.172;2022-08-03T00:26:17;5.70;;;5.10;;
3034;SDS011;1527;48.836;9.172;2022-08-03T00:28:46;4.57;;;4.17;;
3034;SDS011;1527;48.836;9.172;2022-08-03T00:31:15;5.47;;;4.80;;
3034;SDS011;1527;48.836;9.172;2022-08-03T00:34:05;5.17;;;4.33;;
3034;SDS011;1527;48.836;9.172;2022-08-03T00:36:34;4.90;;;4.50;;
3034;SDS011;1527;48.836;9.172;2022-08-03T00:39:03;4.73;;;4.33;;
3034;SDS011;1527;48.836;9.172;2022-08-03T00:41:34;5.10;;;4.00;;
3034;SDS011;1527;48.836;9.172;2022-08-03T00:44:03;5.53;;;5.03;;
3034;SDS011;1527;48.836;9.172;2022-08-03T00:46:32;6.20;;;4.50;;
3034;SDS011;1527;48.836;9.172;2022-08-03T00:49:02;4.77;;;4.37;;
3034;SDS011;1527;48.836;9.172;2022-08-03T00:51:31;5.77;;;4.97;;
3034;SDS011;1527;48.836;9.172;2022-08-03T00:54:01;5.40;;;4.90;;
3034;SDS011;1527;48.836;9.172;2022-08-03T00:56:31;6.00;;;5.40;;
3034;SDS011;1527;48.836;9.172;2022-08-03T00:59:01;6.97;;;5.20;;
3034;SDS011;1527;48.836;9.172;2022-08-03T01:01:31;5.30;;;4.80;;
3034;SDS011;1527;48.836;9.172;2022-08-03T01:04:00;11.30;;;6.33;;
3034;SDS011;1527;48.836;9.172;2022-08-03T01:06:31;7.97;;;4.83;;
3034;SDS011;1527;48.836;9.172;2022-08-03T01:09:11;9.20;;;4.73;;
3034;SDS011;1527;48.836;9.172;2022-08-03T01:11:49;5.70;;;5.20;;
3034;SDS011;1527;48.836;9.172;2022-08-03T01:14:31;4.67;;;4.13;;
3034;SDS011;1527;48.836;9.172;2022-08-03T01:17:10;4.93;;;4.43;;
3034;SDS011;1527;48.836;9.172;2022-08-03T01:23:37;5.20;;;4.67;;
3034;SDS011;1527;48.836;9.172;2022-08-03T01:26:27;7.23;;;4.67;;
3034;SDS011;1527;48.836;9.172;2022-08-03T01:29:19;6.23;;;4.20;;
3034;SDS011;1527;48.836;9.172;2022-08-03T01:32:21;4.63;;;4.17;;
3034;SDS011;1527;48.836;9.172;2022-08-03T01:35:20;5.80;;;4.85;;
3034;SDS011;1527;48.836;9.172;2022-08-03T01:37:55;4.50;;;4.10;;
3034;SDS011;1527;48.836;9.172;2022-08-03T01:40:28;5.35;;;4.85;;
3034;SDS011;1527;48.836;9.172;2022-08-03T01:43:02;5.30;;;4.80;;
3034;SDS011;1527;48.836;9.172;2022-08-03T01:45:35;5.68;;;4.60;;
3034;SDS011;1527;48.836;9.172;2022-08-03T01:48:05;4.32;;;3.92;;
3034;SDS011;1527;48.836;9.172;2022-08-03T01:50:35;10.13;;;5.18;;
3034;SDS011;1527;48.836;9.172;2022-08-03T01:53:05;5.20;;;4.70;;
3034;SDS011;1527;48.836;9.172;2022-08-03T01:55:36;5.70;;;5.22;;
3034;SDS011;1527;48.836;9.172;2022-08-03T01:58:06;5.27;;;4.77;;
3034;SDS011;1527;48.836;9.172;2022-08-03T02:00:37;6.47;;;4.93;;
3034;SDS011;1527;48.836;9.172;2022-08-03T02:03:08;5.20;;;4.70;;
3034;SDS011;1527;48.836;9.172;2022-08-03T02:05:39;5.43;;;4.90;;
3034;SDS011;1527;48.836;9.172;2022-08-03T02:08:11;5.18;;;4.68;;
3034;SDS011;1527;48.836;9.172;2022-08-03T02:10:43;6.93;;;6.43;;
3034;SDS011;1527;48.836;9.172;2022-08-03T02:13:13;6.90;;;6.30;;
3034;SDS011;1527;48.836;9.172;2022-08-03T02:15:45;6.20;;;5.22;;
3034;SDS011;1527;48.836;9.172;2022-08-03T02:18:16;6.95;;;5.90;;
3034;SDS011;1527;48.836;9.172;2022-08-03T02:20:47;6.40;;;5.72;;
3034;SDS011;1527;48.836;9.172;2022-08-03T02:23:18;8.18;;;5.68;;
3034;SDS011;1527;48.836;9.172;2022-08-03T02:25:51;5.05;;;4.65;;
3034;SDS011;1527;48.836;9.172;2022-08-03T02:28:28;6.78;;;6.07;;
3034;SDS011;1527;48.836;9.172;2022-08-03T02:31:04;7.20;;;5.95;;
3034;SDS011;1527;48.836;9.172;2022-08-03T02:33:49;6.93;;;5.40;;
3034;SDS011;1527;48.836;9.172;2022-08-03T02:36:22;7.65;;;6.15;;
3034;SDS011;1527;48.836;9.172;2022-08-03T02:38:58;6.47;;;5.47;;
3034;SDS011;1527;48.836;9.172;2022-08-03T02:41:29;6.22;;;5.63;;
3034;SDS011;1527;48.836;9.172;2022-08-03T02:44:06;7.03;;;6.38;;
3034;SDS011;1527;48.836;9.172;2022-08-03T02:46:40;6.05;;;5.45;;
3034;SDS011;1527;48.836;9.172;2022-08-03T02:49:13;6.70;;;5.70;;
3034;SDS011;1527;48.836;9.172;2022-08-03T02:52:06;6.60;;;5.85;;
3034;SDS011;1527;48.836;9.172;2022-08-03T02:54:42;6.40;;;5.80;;
3034;SDS011;1527;48.836;9.172;2022-08-03T02:57:13;6.85;;;5.93;;
3034;SDS011;1527;48.836;9.172;2022-08-03T02:59:44;7.07;;;5.30;;
3034;SDS011;1527;48.836;9.172;2022-08-03T03:02:15;9.35;;;5.55;;
3034;SDS011;1527;48.836;9.172;2022-08-03T03:04:47;6.90;;;6.22;;
3034;SDS011;1527;48.836;9.172;2022-08-03T03:07:39;10.20;;;6.43;;
3034;SDS011;1527;48.836;9.172;2022-08-03T03:10:19;8.65;;;6.13;;
3034;SDS011;1527;48.836;9.172;2022-08-03T03:12:50;6.63;;;5.63;;
3034;SDS011;1527;48.836;9.172;2022-08-03T03:15:23;6.78;;;5.85;;
3034;SDS011;1527;48.836;9.172;2022-08-03T03:17:56;7.15;;;6.07;;
3034;SDS011;1527;48.836;9.172;2022-08-03T03:20:27;6.97;;;6.38;;
3034;SDS011;1527;48.836;9.172;2022-08-03T03:22:58;7.13;;;6.43;;
3034;SDS011;1527;48.836;9.172;2022-08-03T03:25:29;7.03;;;6.32;;
3034;SDS011;1527;48.836;9.172;2022-08-03T03:28:00;8.68;;;6.70;;
3034;SDS011;1527;48.836;9.172;2022-08-03T03:30:32;11.18;;;6.18;;
3034;SDS011;1527;48.836;9.172;2022-08-03T03:33:03;8.23;;;5.78;;
3034;SDS011;1527;48.836;9.172;2022-08-03T03:35:32;6.88;;;6.18;;
3034;SDS011;1527;48.836;9.172;2022-08-03T03:38:05;7.60;;;6.70;;
3034;SDS011;1527;48.836;9.172;2022-08-03T03:40:35;8.20;;;6.30;;
3034;SDS011;1527;48.836;9.172;2022-08-03T03:43:06;6.32;;;5.78;;
3034;SDS011;1527;48.836;9.172;2022-08-03T03:45:36;9.48;;;6.85;;
3034;SDS011;1527;48.836;9.172;2022-08-03T03:48:09;11.90;;;6.50;;
3034;SDS011;1527;48.836;9.172;2022-08-03T03:50:39;7.22;;;6.60;;
3034;SDS011;1527;48.836;9.172;2022-08-03T03:53:09;11.15;;;7.32;;
3034;SDS011;1527;48.836;9.172;2022-08-03T03:55:40;7.28;;;6.47;;
3034;SDS011;1527;48.836;9.172;2022-08-03T03:58:29;6.47;;;5.97;;
3034;SDS011;1527;48.836;9.172;2022-08-03T04:00:59;8.27;;;5.90;;
3034;SDS011;1527;48.836;9.172;2022-08-03T04:03:30;7.60;;;6.35;;
3034;SDS011;1527;48.836;9.172;2022-08-03T04:05:59;9.00;;;6.22;;
3034;SDS011;1527;48.836;9.172;2022-08-03T04:08:46;7.00;;;6.38;;
3034;SDS011;1527;48.836;9.172;2022-08-03T04:11:33;7.80;;;7.10;;
3034;SDS011;1527;48.836;9.172;2022-08-03T04:14:08;7.25;;;6.50;;
3034;SDS011;1527;48.836;9.172;2022-08-03T04:16:44;11.57;;;6.72;;
3034;SDS011;1527;48.836;9.172;2022-08-03T04:19:21;10.20;;;6.05;;
3034;SDS011;1527;48.836;9.172;2022-08-03T04:21:59;7.65;;;6.85;;
3034;SDS011;1527;48.836;9.172;2022-08-03T04:24:34;12.70;;;6.60;;
3034;SDS011;1527;48.836;9.172;2022-08-03T04:27:08;7.10;;;6.47;;
3034;SDS011;1527;48.836;9.172;2022-08-03T04:29:40;7.63;;;6.78;;
3034;SDS011;1527;48.836;9.172;2022-08-03T04:32:15;8.88;;;6.03;;
3034;SDS011;1527;48.836;9.172;2022-08-03T04:34:47;8.40;;;7.07;;
3034;SDS011;1527;48.836;9.172;2022-08-03T04:37:17;12.75;;;6.70;;
3034;SDS011;1527;48.836;9.172;2022-08-03T04:39:54;9.20;;;6.90;;
3034;SDS011;1527;48.836;9.172;2022-08-03T04:42:26;11.15;;;7.68;;
3034;SDS011;1527;48.836;9.172;2022-08-03T04:44:56;9.93;;;7.55;;
3034;SDS011;1527;48.836;9.172;2022-08-03T04:47:28;8.52;;;7.00;;
3034;SDS011;1527;48.836;9.172;2022-08-03T04:50:02;8.32;;;7.40;;
3034;SDS011;1527;48.836;9.172;2022-08-03T04:52:40;8.35;;;7.05;;
3034;SDS011;1527;48.836;9.172;2022-08-03T04:55:09;7.38;;;6.50;;
3034;SDS011;1527;48.836;9.172;2022-08-03T04:57:38;9.25;;;6.90;;
3034;SDS011;1527;48.836;9.172;2022-08-03T05:00:08;10.67;;;6.70;;
3034;SDS011;1527;48.836;9.172;2022-08-03T05:02:38;7.50;;;6.07;;
3034;SDS011;1527;48.836;9.172;2022-08-03T05:05:09;8.27;;;6.30;;
3034;SDS011;1527;48.836;9.172;2022-08-03T05:07:38;12.33;;;6.13;;
3034;SDS011;1527;48.836;9.172;2022-08-03T05:10:08;10.20;;;5.80;;
3034;SDS011;1527;48.836;9.172;2022-08-03T05:12:43;5.97;;;5.17;;
3034;SDS011;1527;48.836;9.172;2022-08-03T05:15:13;5.50;;;5.00;;
3034;SDS011;1527;48.836;9.172;2022-08-03T05:17:42;6.37;;;5.77;;
3034;SDS011;1527;48.836;9.172;2022-08-03T05:20:13;6.53;;;5.33;;
3034;SDS011;1527;48.836;9.172;2022-08-03T05:22:45;7.47;;;5.20;;
3034;SDS011;1527;48.836;9.172;2022-08-03T05:25:14;5.47;;;4.83;;
3034;SDS011;1527;48.836;9.172;2022-08-03T05:27:46;5.20;;;4.80;;
3034;SDS011;1527;48.836;9.172;2022-08-03T05:30:16;8.13;;;6.70;;
3034;SDS011;1527;48.836;9.172;2022-08-03T05:33:00;8.43;;;5.53;;
3034;SDS011;1527;48.836;9.172;2022-08-03T05:35:32;6.20;;;5.60;;
3034;SDS011;1527;48.836;9.172;2022-08-03T05:38:22;7.03;;;6.00;;
3034;SDS011;1527;48.836;9.172;2022-08-03T05:40:55;7.17;;;5.43;;
3034;SDS011;1527;48.836;9.172;2022-08-03T05:43:45;8.23;;;5.37;;
3034;SDS011;1527;48.836;9.172;2022-08-03T05:46:14;6.27;;;5.30;;
3034;SDS011;1527;48.836;9.172;2022-08-03T05:48:44;5.97;;;5.47;;
3034;SDS011;1527;48.836;9.172;2022-08-03T05:51:14;7.00;;;5.43;;
3034;SDS011;1527;48.836;9.172;2022-08-03T05:53:44;9.47;;;7.60;;
3034;SDS011;1527;48.836;9.172;2022-08-03T05:56:13;6.13;;;5.53;;
3034;SDS011;1527;48.836;9.172;2022-08-03T05:58:43;8.30;;;5.73;;
3034;SDS011;1527;48.836;9.172;2022-08-03T06:01:14;7.67;;;6.00;;
3034;SDS011;1527;48.836;9.172;2022-08-03T06:03:44;6.80;;;5.20;;
3034;SDS011;1527;48.836;9.172;2022-08-03T06:06:15;5.83;;;5.33;;
3034;SDS011;1527;48.836;9.172;2022-08-03T06:08:45;6.37;;;5.77;;
3034;SDS011;1527;48.836;9.172;2022-08-03T06:11:15;7.80;;;5.43;;
3034;SDS011;1527;48.836;9.172;2022-08-03T06:13:44;8.70;;;5.90;;
3034;SDS011;1527;48.836;9.172;2022-08-03T06:16:13;10.40;;;6.73;;
3034;SDS011;1527;48.836;9.172;2022-08-03T06:18:43;6.10;;;5.50;;
3034;SDS011;1527;48.836;9.172;2022-08-03T06:21:12;10.33;;;5.73;;
3034;SDS011;1527;48.836;9.172;2022-08-03T06:23:44;7.40;;;5.73;;
3034;SDS011;1527;48.836;9.172;2022-08-03T06:26:22;8.33;;;5.43;;
3034;SDS011;1527;48.836;9.172;2022-08-03T06:28:53;6.07;;;5.20;;
3034;SDS011;1527;48.836;9.172;2022-08-03T06:31:23;8.63;;;6.53;;
3034;SDS011;1527;48.836;9.172;2022-08-03T06:34:03;8.73;;;5.70;;
3034;SDS011;1527;48.836;9.172;2022-08-03T06:36:54;9.13;;;6.23;;
3034;SDS011;1527;48.836;9.172;2022-08-03T06:39:28;8.47;;;5.07;;
3034;SDS011;1527;48.836;9.172;2022-08-03T06:41:57;6.10;;;5.57;;
3034;SDS011;1527;48.836;9.172;2022-08-03T06:44:26;5.67;;;5.00;;
3034;SDS011;1527;48.836;9.172;2022-08-03T06:46:56;9.00;;;5.00;;
3034;SDS011;1527;48.836;9.172;2022-08-03T06:49:25;10.00;;;5.80;;
3034;SDS011;1527;48.836;9.172;2022-08-03T06:51:56;6.27;;;5.40;;
3034;SDS011;1527;48.836;9.172;2022-08-03T06:54:33;6.23;;;5.20;;
3034;SDS011;1527;48.836;9.172;2022-08-03T06:57:03;6.90;;;5.20;;
3034;SDS011;1527;48.836;9.172;2022-08-03T06:59:34;11.40;;;5.40;;
3034;SDS011;1527;48.836;9.172;2022-08-03T07:02:23;7.47;;;5.67;;
3034;SDS011;1527;48.836;9.172;2022-08-03T07:04:55;5.70;;;4.60;;
3034;SDS011;1527;48.836;9.172;2022-08-03T07:07:26;5.77;;;5.27;;
3034;SDS011;1527;48.836;9.172;2022-08-03T07:09:55;7.00;;;4.73;;
3034;SDS011;1527;48.836;9.172;2022-08-03T07:12:25;5.70;;;5.10;;
3034;SDS011;1527;48.836;9.172;2022-08-03T07:14:55;9.77;;;5.43;;
3034;SDS011;1527;48.836;9.172;2022-08-03T07:17:30;9.60;;;5.13;;
3034;SDS011;1527;48.836;9.172;2022-08-03T07:20:03;8.20;;;5.27;;
3034;SDS011;1527;48.836;9.172;2022-08-03T07:22:35;8.37;;;5.63;;
3034;SDS011;1527;48.836;9.172;2022-08-03T07:25:05;5.30;;;4.90;;
3034;SDS011;1527;48.836;9.172;2022-08-03T07:27:35;12.77;;;5.83;;
3034;SDS011;1527;48.836;9.172;2022-08-03T07:30:05;7.70;;;5.00;;
3034;SDS011;1527;48.836;9.172;2022-08-03T07:32:36;7.40;;;4.97;;
3034;SDS011;1527;48.836;9.172;2022-08-03T07:35:17;6.80;;;4.23;;
3034;SDS011;1527;48.836;9.172;2022-08-03T07:37:52;5.90;;;4.27;;
3034;SDS011;1527;48.836;9.172;2022-08-03T07:40:22;4.77;;;4.20;;
3034;SDS011;1527;48.836;9.172;2022-08-03T07:42:58;7.60;;;4.87;;
3034;SDS011;1527;48.836;9.172;2022-08-03T07:45:29;6.30;;;4.30;;
3034;SDS011;1527;48.836;9.172;2022-08-03T07:47:58;9.10;;;4.40;;
3034;SDS011;1527;48.836;9.172;2022-08-03T07:50:27;6.03;;;4.90;;
3034;SDS011;1527;48.836;9.172;2022-08-03T07:52:58;8.57;;;4.70;;
3034;SDS011;1527;48.836;9.172;2022-08-03T07:55:28;5.63;;;4.33;;
3034;SDS011;1527;48.836;9.172;2022-08-03T07:58:01;12.90;;;4.17;;
3034;SDS011;1527;48.836;9.172;2022-08-03T08:00:36;5.17;;;3.57;;
3034;SDS011;1527;48.836;9.172;2022-08-03T08:03:05;6.20;;;3.67;;
3034;SDS011;1527;48.836;9.172;2022-08-03T08:05:36;4.63;;;3.67;;
3034;SDS011;1527;48.836;9.172;2022-08-03T08:08:06;5.20;;;4.10;;
3034;SDS011;1527;48.836;9.172;2022-08-03T08:10:36;5.83;;;4.00;;
3034;SDS011;1527;48.836;9.172;2022-08-03T08:13:05;4.90;;;4.40;;
3034;SDS011;1527;48.836;9.172;2022-08-03T08:15:34;5.23;;;4.30;;
3034;SDS011;1527;48.836;9.172;2022-08-03T08:18:09;6.07;;;2.97;;
3034;SDS011;1527;48.836;9.172;2022-08-03T08:20:38;6.23;;;2.97;;
3034;SDS011;1527;48.836;9.172;2022-08-03T08:23:11;4.67;;;3.47;;
3034;SDS011;1527;48.836;9.172;2022-08-03T08:26:00;4.17;;;3.40;;
3034;SDS011;1527;48.836;9.172;2022-08-03T08:28:29;7.33;;;3.10;;
3034;SDS011;1527;48.836;9.172;2022-08-03T08:31:00;5.77;;;3.80;;
3034;SDS011;1527;48.836;9.172;2022-08-03T08:33:29;2.80;;;2.60;;
3034;SDS011;1527;48.836;9.172;2022-08-03T08:36:20;5.40;;;3.13;;
3034;SDS011;1527;48.836;9.172;2022-08-03T08:38:52;3.00;;;2.80;;
3034;SDS011;1527;48.836;9.172;2022-08-03T08:41:21;2.83;;;2.63;;
3034;SDS011;1527;48.836;9.172;2022-08-03T08:43:58;3.40;;;2.90;;
3034;SDS011;1527;48.836;9.172;2022-08-03T08:46:28;2.50;;;2.40;;
3034;SDS011;1527;48.836;9.172;2022-08-03T08:49:00;2.73;;;2.53;;
3034;SDS011;1527;48.836;9.172;2022-08-03T08:51:33;4.73;;;2.50;;
3034;SDS011;1527;48.836;9.172;2022-08-03T08:54:25;2.30;;;2.20;;
3034;SDS011;1527;48.836;9.172;2022-08-03T08:56:55;3.07;;;2.37;;
3034;SDS011;1527;48.836;9.172;2022-08-03T08:59:26;3.93;;;2.60;;
3034;SDS011;1527;48.836;9.172;2022-08-03T09:02:15;3.50;;;2.57;;
3034;SDS011;1527;48.836;9.172;2022-08-03T09:04:45;3.37;;;2.50;;
3034;SDS011;1527;48.836;9.172;2022-08-03T09:07:15;3.10;;;2.50;;
3034;SDS011;1527;48.836;9.172;2022-08-03T09:09:48;2.80;;;2.60;;
3034;SDS011;1527;48.836;9.172;2022-08-03T09:12:37;2.93;;;2.63;;
3034;SDS011;1527;48.836;9.172;2022-08-03T09:15:16;2.67;;;2.47;;
3034;SDS011;1527;48.836;9.172;2022-08-03T09:17:48;2.63;;;2.20;;
3034;SDS011;1527;48.836;9.172;2022-08-03T09:20:21;3.20;;;2.90;;
3034;SDS011;1527;48.836;9.172;2022-08-03T09:22:57;3.47;;;2.73;;
3034;SDS011;1527;48.836;9.172;2022-08-03T09:25:30;4.60;;;2.30;;
3034;SDS011;1527;48.836;9.172;2022-08-03T09:28:08;2.40;;;2.20;;
3034;SDS011;1527;48.836;9.172;2022-08-03T09:30:59;3.07;;;2.60;;
3034;SDS011;1527;48.836;9.172;2022-08-03T09:33:28;2.40;;;2.20;;
3034;SDS011;1527;48.836;9.172;2022-08-03T09:36:02;3.93;;;2.30;;
3034;SDS011;1527;48.836;9.172;2022-08-03T09:38:32;2.40;;;2.20;;
3034;SDS011;1527;48.836;9.172;2022-08-03T09:41:02;2.50;;;2.00;;
3034;SDS011;1527;48.836;9.172;2022-08-03T09:43:46;2.80;;;1.93;;
3034;SDS011;1527;48.836;9.172;2022-08-03T09:46:17;2.00;;;1.90;;
3034;SDS011;1527;48.836;9.172;2022-08-03T09:48:47;2.80;;;2.20;;
3034;SDS011;1527;48.836;9.172;2022-08-03T09:51:16;2.53;;;2.33;;
3034;SDS011;1527;48.836;9.172;2022-08-03T09:53:59;2.50;;;2.30;;
3034;SDS011;1527;48.836;9.172;2022-08-03T09:56:42;2.40;;;2.20;;
3034;SDS011;1527;48.836;9.172;2022-08-03T09:59:21;2.67;;;2.43;;
3034;SDS011;1527;48.836;9.172;2022-08-03T10:01:55;2.20;;;2.00;;
3034;SDS011;1527;48.836;9.172;2022-08-03T10:04:26;3.00;;;2.10;;
3034;SDS011;1527;48.836;9.172;2022-08-03T10:07:02;2.33;;;2.20;;
3034;SDS011;1527;48.836;9.172;2022-08-03T10:09:35;2.53;;;2.33;;
3034;SDS011;1527;48.836;9.172;2022-08-03T10:12:09;4.13;;;2.27;;
3034;SDS011;1527;48.836;9.172;2022-08-03T10:14:41;2.17;;;1.87;;
3034;SDS011;1527;48.836;9.172;2022-08-03T10:17:12;3.37;;;2.27;;
3034;SDS011;1527;48.836;9.172;2022-08-03T10:19:44;2.47;;;2.27;;
3034;SDS011;1527;48.836;9.172;2022-08-03T10:22:15;2.80;;;2.13;;
3034;SDS011;1527;48.836;9.172;2022-08-03T10:24:51;2.20;;;2.00;;
3034;SDS011;1527;48.836;9.172;2022-08-03T10:27:25;2.03;;;1.83;;
3034;SDS011;1527;48.836;9.172;2022-08-03T10:30:02;3.43;;;2.37;;
3034;SDS011;1527;48.836;9.172;2022-08-03T10:32:37;2.40;;;2.20;;
3034;SDS011;1527;48.836;9.172;2022-08-03T10:35:13;2.23;;;2.13;;
3034;SDS011;1527;48.836;9.172;2022-08-03T10:37:48;2.67;;;2.47;;
3034;SDS011;1527;48.836;9.172;2022-08-03T10:40:25;2.20;;;2.10;;
3034;SDS011;1527;48.836;9.172;2022-08-03T10:43:19;2.73;;;2.10;;
3034;SDS011;1527;48.836;9.172;2022-08-03T10:45:52;2.53;;;2.30;;
3034;SDS011;1527;48.836;9.172;2022-08-03T10:48:24;2.70;;;2.30;;
3034;SDS011;1527;48.836;9.172;2022-08-03T10:50:54;2.57;;;2.17;;
3034;SDS011;1527;48.836;9.172;2022-08-03T10:53:33;2.27;;;2.07;;
3034;SDS011;1527;48.836;9.172;2022-08-03T10:56:05;2.67;;;2.23;;
3034;SDS011;1527;48.836;9.172;2022-08-03T10:59:03;2.90;;;2.60;;
3034;SDS011;1527;48.836;9.172;2022-08-03T11:01:47;3.30;;;2.27;;
3034;SDS011;1527;48.836;9.172;2022-08-03T11:04:27;6.60;;;2.90;;
3034;SDS011;1527;48.836;9.172;2022-08-03T11:09:50;4.40;;;2.90;;
3034;SDS011;1527;48.836;9.172;2022-08-03T11:12:21;2.50;;;2.30;;
3034;SDS011;1527;48.836;9.172;2022-08-03T11:14:59;2.40;;;2.30;;
3034;SDS011;1527;48.836;9.172;2022-08-03T11:17:31;2.77;;;2.50;;
3034;SDS011;1527;48.836;9.172;2022-08-03T11:23:16;2.70;;;2.40;;
3034;SDS011;1527;48.836;9.172;2022-08-03T11:26:08;2.70;;;2.50;;
3034;SDS011;1527;48.836;9.172;2022-08-03T11:28:42;3.13;;;2.33;;
3034;SDS011;1527;48.836;9.172;2022-08-03T11:34:21;2.37;;;2.23;;
3034;SDS011;1527;48.836;9.172;2022-08-03T11:39:54;6.23;;;2.30;;
3034;SDS011;1527;48.836;9.172;2022-08-03T11:42:39;2.80;;;2.60;;
3034;SDS011;1527;48.836;9.172;2022-08-03T11:45:11;2.60;;;2.40;;
3034;SDS011;1527;48.836;9.172;2022-08-03T11:47:43;4.70;;;2.40;;
3034;SDS011;1527;48.836;9.172;2022-08-03T11:50:18;2.67;;;2.37;;
3034;SDS011;1527;48.836;9.172;2022-08-03T11:52:48;2.50;;;2.30;;
3034;SDS011;1527;48.836;9.172;2022-08-03T11:55:18;2.63;;;2.37;;
3034;SDS011;1527;48.836;9.172;2022-08-03T11:57:48;2.60;;;2.40;;
3034;SDS011;1527;48.836;9.172;2022-08-03T12:00:38;2.97;;;2.43;;
3034;SDS011;1527;48.836;9.172;2022-08-03T12:03:10;3.20;;;2.90;;
3034;SDS011;1527;48.836;9.172;2022-08-03T12:05:46;2.57;;;2.07;;
3034;SDS011;1527;48.836;9.172;2022-08-03T12:08:28;2.60;;;2.40;;
3034;SDS011;1527;48.836;9.172;2022-08-03T12:11:00;3.00;;;2.70;;
3034;SDS011;1527;48.836;9.172;2022-08-03T12:13:36;2.80;;;2.60;;
3034;SDS011;1527;48.836;9.172;2022-08-03T12:16:28;4.03;;;2.83;;
3034;SDS011;1527;48.836;9.172;2022-08-03T12:18:59;2.63;;;2.30;;
3034;SDS011;1527;48.836;9.172;2022-08-03T12:21:30;2.40;;;2.30;;
3034;SDS011;1527;48.836;9.172;2022-08-03T12:24:00;2.93;;;2.67;;
3034;SDS011;1527;48.836;9.172;2022-08-03T12:26:41;2.80;;;2.60;;
3034;SDS011;1527;48.836;9.172;2022-08-03T12:29:25;2.47;;;2.27;;
3034;SDS011;1527;48.836;9.172;2022-08-03T12:31:55;3.00;;;2.70;;
3034;SDS011;1527;48.836;9.172;2022-08-03T12:37:17;3.50;;;2.77;;
3034;SDS011;1527;48.836;9.172;2022-08-03T12:39:49;4.30;;;2.70;;
3034;SDS011;1527;48.836;9.172;2022-08-03T12:42:32;5.03;;;2.90;;
3034;SDS011;1527;48.836;9.172;2022-08-03T12:45:22;3.57;;;2.87;;
3034;SDS011;1527;48.836;9.172;2022-08-03T12:47:53;3.00;;;2.80;;
3034;SDS011;1527;48.836;9.172;2022-08-03T12:50:28;2.50;;;2.30;;
3034;SDS011;1527;48.836;9.172;2022-08-03T12:52:59;2.53;;;2.33;;
3034;SDS011;1527;48.836;9.172;2022-08-03T12:55:31;2.47;;;2.27;;
3034;SDS011;1527;48.836;9.172;2022-08-03T12:58:28;2.67;;;2.47;;
3034;SDS011;1527;48.836;9.172;2022-08-03T13:01:01;3.30;;;2.80;;
3034;SDS011;1527;48.836;9.172;2022-08-03T13:03:40;2.63;;;2.43;;
3034;SDS011;1527;48.836;9.172;2022-08-03T13:06:20;4.60;;;2.77;;
3034;SDS011;1527;48.836;9.172;2022-08-03T13:09:00;2.70;;;2.60;;
3034;SDS011;1527;48.836;9.172;2022-08-03T13:11:33;2.60;;;2.40;;
3034;SDS011;1527;48.836;9.172;2022-08-03T13:14:22;2.90;;;2.70;;
3034;SDS011;1527;48.836;9.172;2022-08-03T13:16:51;2.97;;;2.60;;
3034;SDS011;1527;48.836;9.172;2022-08-03T13:19:20;3.80;;;2.60;;
3034;SDS011;1527;48.836;9.172;2022-08-03T13:21:51;2.30;;;2.20;;
3034;SDS011;1527;48.836;9.172;2022-08-03T13:24:33;4.30;;;2.63;;
3034;SDS011;1527;48.836;9.172;2022-08-03T13:27:02;3.30;;;2.50;;
3034;SDS011;1527;48.836;9.172;2022-08-03T13:29:53;2.50;;;2.30;;
3034;SDS011;1527;48.836;9.172;2022-08-03T13:32:23;2.57;;;2.20;;
3034;SDS011;1527;48.836;9.172;2022-08-03T13:34:52;2.67;;;2.30;;
3034;SDS011;1527;48.836;9.172;2022-08-03T13:37:23;3.60;;;2.70;;
3034;SDS011;1527;48.836;9.172;2022-08-03T13:39:53;2.83;;;2.60;;
3034;SDS011;1527;48.836;9.172;2022-08-03T13:42:27;3.23;;;2.93;;
3034;SDS011;1527;48.836;9.172;2022-08-03T13:44:57;2.67;;;2.53;;
3034;SDS011;1527;48.836;9.172;2022-08-03T13:47:27;3.40;;;2.53;;
3034;SDS011;1527;48.836;9.172;2022-08-03T13:49:56;3.73;;;2.57;;
3034;SDS011;1527;48.836;9.172;2022-08-03T13:52:32;2.60;;;2.40;;
3034;SDS011;1527;48.836;9.172;2022-08-03T13:55:03;2.93;;;2.70;;
3034;SDS011;1527;48.836;9.172;2022-08-03T13:57:34;2.90;;;2.70;;
3034;SDS011;1527;48.836;9.172;2022-08-03T14:00:23;2.73;;;2.53;;
3034;SDS011;1527;48.836;9.172;2022-08-03T14:02:56;3.13;;;2.83;;
3034;SDS011;1527;48.836;9.172;2022-08-03T14:05:40;2.80;;;2.60;;
3034;SDS011;1527;48.836;9.172;2022-08-03T14:08:11;2.50;;;2.30;;
3034;SDS011;1527;48.836;9.172;2022-08-03T14:10:42;3.30;;;1.90;;
3034;SDS011;1527;48.836;9.172;2022-08-03T14:13:12;3.10;;;2.87;;
3034;SDS011;1527;48.836;9.172;2022-08-03T14:15:44;2.97;;;2.57;;
3034;SDS011;1527;48.836;9.172;2022-08-03T14:18:17;2.70;;;2.50;;
3034;SDS011;1527;48.836;9.172;2022-08-03T14:20:59;3.33;;;2.10;;
3034;SDS011;1527;48.836;9.172;2022-08-03T14:23:35;2.20;;;2.07;;
3034;SDS011;1527;48.836;9.172;2022-08-03T14:26:05;2.43;;;2.23;;
3034;SDS011;1527;48.836;9.172;2022-08-03T14:28:35;2.93;;;2.73;;
3034;SDS011;1527;48.836;9.172;2022-08-03T14:31:04;2.77;;;2.57;;
3034;SDS011;1527;48.836;9.172;2022-08-03T14:33:53;7.50;;;3.00;;
3034;SDS011;1527;48.836;9.172;2022-08-03T14:36:22;2.60;;;2.40;;
3034;SDS011;1527;48.836;9.172;2022-08-03T14:38:53;2.90;;;2.70;;
3034;SDS011;1527;48.836;9.172;2022-08-03T14:41:27;3.30;;;2.60;;
3034;SDS011;1527;48.836;9.172;2022-08-03T14:43:56;5.10;;;2.83;;
3034;SDS011;1527;48.836;9.172;2022-08-03T14:46:27;3.40;;;2.67;;
3034;SDS011;1527;48.836;9.172;2022-08-03T14:48:57;4.23;;;2.80;;
3034;SDS011;1527;48.836;9.172;2022-08-03T14:51:46;3.10;;;2.50;;
3034;SDS011;1527;48.836;9.172;2022-08-03T14:54:21;3.30;;;2.70;;
3034;SDS011;1527;48.836;9.172;2022-08-03T14:56:50;3.87;;;2.70;;
3034;SDS011;1527;48.836;9.172;2022-08-03T14:59:20;4.43;;;2.70;;
3034;SDS011;1527;48.836;9.172;2022-08-03T15:01:49;6.10;;;2.53;;
3034;SDS011;1527;48.836;9.172;2022-08-03T15:04:33;2.07;;;1.97;;
3034;SDS011;1527;48.836;9.172;2022-08-03T15:07:02;2.80;;;2.50;;
3034;SDS011;1527;48.836;9.172;2022-08-03T15:09:33;3.60;;;2.37;;
3034;SDS011;1527;48.836;9.172;2022-08-03T15:12:04;2.50;;;2.30;;
3034;SDS011;1527;48.836;9.172;2022-08-03T15:14:34;2.50;;;2.40;;
3034;SDS011;1527;48.836;9.172;2022-08-03T15:17:04;2.67;;;2.37;;
3034;SDS011;1527;48.836;9.172;2022-08-03T15:19:33;3.23;;;2.30;;
3034;SDS011;1527;48.836;9.172;2022-08-03T15:22:23;2.60;;;2.40;;
3034;SDS011;1527;48.836;9.172;2022-08-03T15:25:03;2.73;;;2.53;;
3034;SDS011;1527;48.836;9.172;2022-08-03T15:27:53;13.60;;;2.77;;
3034;SDS011;1527;48.836;9.172;2022-08-03T15:30:31;2.57;;;2.37;;
3034;SDS011;1527;48.836;9.172;2022-08-03T15:33:03;2.70;;;2.50;;
3034;SDS011;1527;48.836;9.172;2022-08-03T15:35:33;3.37;;;2.30;;
3034;SDS011;1527;48.836;9.172;2022-08-03T15:38:02;2.50;;;2.30;;
3034;SDS011;1527;48.836;9.172;2022-08-03T15:40:37;2.93;;;2.53;;
3034;SDS011;1527;48.836;9.172;2022-08-03T15:43:06;2.50;;;2.30;;
3034;SDS011;1527;48.836;9.172;2022-08-03T15:45:39;6.60;;;2.43;;
3034;SDS011;1527;48.836;9.172;2022-08-03T15:48:09;3.70;;;2.80;;
3034;SDS011;1527;48.836;9.172;2022-08-03T15:50:41;4.97;;;2.87;;
3034;SDS011;1527;48.836;9.172;2022-08-03T15:53:10;2.67;;;2.47;;
3034;SDS011;1527;48.836;9.172;2022-08-03T15:55:45;5.83;;;2.17;;
3034;SDS011;1527;48.836;9.172;2022-08-03T15:58:15;2.70;;;2.50;;
3034;SDS011;1527;48.836;9.172;2022-08-03T16:01:05;2.67;;;2.47;;
3034;SDS011;1527;48.836;9.172;2022-08-03T16:03:34;2.20;;;2.10;;
3034;SDS011;1527;48.836;9.172;2022-08-03T16:06:05;3.43;;;2.43;;
3034;SDS011;1527;48.836;9.172;2022-08-03T16:08:35;4.90;;;2.37;;
3034;SDS011;1527;48.836;9.172;2022-08-03T16:11:06;2.63;;;2.43;;
3034;SDS011;1527;48.836;9.172;2022-08-03T16:13:35;2.50;;;2.30;;
3034;SDS011;1527;48.836;9.172;2022-08-03T16:16:24;2.53;;;2.43;;